Archival Weather

Fukuoka

Fukuoka, Japan (RJFF)

Report from: Tuesday, August 16, 2022 6:38 AM JST
Current time: Sunday, November 27, 2022 5:35 PM JST

Current weather
Weather history
Weather forecast

Present weatherLight rain showers
Temperature28.0°C (82.4°F)
Heat index32.0°C (89.6°F)
Dew point24.0°C (75.2°F)
Winds 13 kts (6.7 m/s, 15 mph) South-Southeast (150°)
Visibility6.2 mi. (10 km)
Clouds Few clouds 500 ft. (152 m)
Scattered clouds 3,000 ft. (914 m)
Ceiling: Broken clouds 3,500 ft. (1,067 m)
Few clouds with towering cumulus 3,500 ft. (1,067 m)
Altimeter29.74 in.Hg (1007 mB)
Relative humidity79 %
Density altitude2,106 ft. (642 m)
Remarks Special weather observation
Towering cumulus clouds observed southeast moving east
Flight conditions Visual Meteorological Conditions
Raw dataSPJP31 KWBC 152204 SPECI RJFF 152138Z 15013KT 9999 -SHRA FEW005 SCT030 BKN035 FEW035TCU 28/24 Q1007 RMK 1ST005 4CU030 5CU035 1TCU035 A2974 TCU 10KM SE MOV E
An error has occurred. This application may no longer respond until reloaded. Reload 🗙